Schedule Details


Flight Number: CTN659
Departure: Kastela (LDSP) at 20:45
Arrival: Franjo Tudman (LDZA) at 21:30
Route: SIRMI M725 RUDIK

Weather Information
LDSP 081300Z 22010KT CAVOK 19/02 Q1024 NOSIG
LDZA 081300Z VRB02KT CAVOK 20/M04 Q1026 NOSIG
Schedule Frequency

Route Map